Hackettstown, New Jersey
Current Conditions -  °F | °C
As of 10:53 PM on Wednesday 22 Oct 2014 (Local Time) from KSMQ Reporting Station
Light Rain Light Rain  
Wind Chill: 53°   Ceiling: 2800
Heat Index: 53°   Visibility: 9mi
Dew Point: 47°   Wind: 12mph
Humidity: 80%   Direction: 350°N
Pressure: 29.77"   Gusts: 18mph
Location:  40.85°N, 74.83°W
Report Text: KSMQ 230253Z AUTO 35010G16KT 9SM -RA BKN028 OVC037 12/08 A2977 RMK AO2 SLP081 P0002 60007 T01170083 58016
Loading
Personal Weather Stations






























Interactive Weather Map
Tropical Storm Tracking
New forecast layout! Learn more

10-Day Weather Forecast

Advertisements
Track Severe Weather on mobile